Coalmont, Colorado
Current Conditions -  °F | °C
As of 1:55 PM on Saturday 20 Dec 2014 (Local Time) from K33V Reporting Station
Overcast Overcast  
Wind Chill: 21°   Ceiling: 4800
Heat Index: 30°   Visibility: 10mi
Dew Point: 21°   Wind: 12mph
Humidity: 69%   Direction: 190°S
Pressure: 30.01"   Gusts: NA
Location:  40.56°N, 106.45°W
Report Text: K33V 202055Z AUTO 19010KT 10SM OVC048 M01/M06 A3001 RMK AO2
Loading
Personal Weather Stations






























Interactive Weather Map New forecast layout! Learn more

10-Day Weather Forecast

Advertisements
Track Severe Weather on mobile